Time;durP1;ratioP1;P1;durP2;ratioP2;P2;SDS_P1;SDS_P2;PMS_P1;PMS_P2;Temp;Humidity;BMP_temperature;BMP_pressure;BME280_temperature;BME280_humidity;BME280_pressure;Samples;Min_cycle;Max_cycle;Signal;HPM_P1;HPM_P2
2022/01/07 00:00:36;;;;;;;15.63;4.68;;;1.50;99.90;;;;;;4941099;28;20125;-83
2022/01/07 00:03:03;;;;;;;11.63;4.22;;;1.50;99.90;;;;;;4941643;28;20208;-83
2022/01/07 00:05:28;;;;;;;11.80;3.67;;;1.50;99.90;;;;;;4941371;28;20082;-83
2022/01/07 00:07:54;;;;;;;13.73;4.53;;;1.50;99.90;;;;;;4940939;28;20031;-83
2022/01/07 00:10:21;;;;;;;11.27;3.83;;;1.40;99.90;;;;;;4941485;28;20065;-83
2022/01/07 00:12:47;;;;;;;9.27;3.75;;;1.40;99.90;;;;;;4942716;28;20443;-83
2022/01/07 00:15:13;;;;;;;10.93;4.47;;;1.40;99.90;;;;;;4941775;28;20122;-82
2022/01/07 00:17:39;;;;;;;8.27;3.95;;;1.40;99.90;;;;;;4940964;28;20198;-83
2022/01/07 00:20:09;;;;;;;11.50;3.65;;;1.40;99.90;;;;;;4941504;28;20070;-83
2022/01/07 00:22:35;;;;;;;11.98;3.75;;;1.40;99.90;;;;;;4940910;28;20333;-83
2022/01/07 00:25:00;;;;;;;14.30;3.78;;;1.40;99.90;;;;;;4940817;28;20028;-83
2022/01/07 00:27:26;;;;;;;13.30;3.28;;;1.30;99.90;;;;;;4941832;28;20031;-83
2022/01/07 00:29:51;;;;;;;9.90;3.63;;;1.30;99.90;;;;;;4940272;28;20035;-83
2022/01/07 00:32:17;;;;;;;11.60;4.88;;;1.30;99.90;;;;;;4942430;28;20394;-83
2022/01/07 00:34:43;;;;;;;9.75;3.13;;;1.40;99.90;;;;;;4941761;28;20057;-83
2022/01/07 00:37:08;;;;;;;16.35;4.85;;;1.40;99.90;;;;;;4940836;29;20089;-83
2022/01/07 00:39:34;;;;;;;8.45;4.03;;;1.40;99.90;;;;;;4940541;28;20035;-82
2022/01/07 00:41:59;;;;;;;13.02;3.63;;;1.30;99.90;;;;;;4940181;29;20038;-83
2022/01/07 00:44:25;;;;;;;12.50;4.65;;;1.30;99.90;;;;;;4941087;28;20027;-83
2022/01/07 00:46:50;;;;;;;13.20;4.88;;;1.30;99.90;;;;;;4941436;28;20142;-83
2022/01/07 00:49:21;;;;;;;12.57;4.70;;;1.30;99.90;;;;;;4940748;28;20032;-83
2022/01/07 00:51:50;;;;;;;11.80;4.80;;;1.40;99.90;;;;;;4941168;29;20024;-83
2022/01/07 00:54:16;;;;;;;9.07;4.15;;;1.40;99.90;;;;;;4940624;28;20459;-82
2022/01/07 00:56:42;;;;;;;12.73;4.82;;;1.40;99.90;;;;;;4940592;28;20028;-82
2022/01/07 00:59:08;;;;;;;11.68;4.63;;;1.40;99.90;;;;;;4941623;28;20432;-83
2022/01/07 01:01:34;;;;;;;16.85;5.18;;;1.40;99.90;;;;;;4942030;28;20089;-83
2022/01/07 01:04:00;;;;;;;15.55;4.30;;;1.30;99.90;;;;;;4942188;28;20030;-83
2022/01/07 01:06:25;;;;;;;11.63;3.95;;;1.30;99.90;;;;;;4940713;29;20019;-82
2022/01/07 01:08:51;;;;;;;7.07;3.78;;;1.30;99.90;;;;;;4941228;29;20480;-82
2022/01/07 01:11:16;;;;;;;13.02;3.85;;;1.30;99.90;;;;;;4940917;28;20020;-82
2022/01/07 01:13:42;;;;;;;7.65;4.00;;;1.30;99.90;;;;;;4940754;28;20043;-82
2022/01/07 01:16:07;;;;;;;12.48;3.97;;;1.30;99.90;;;;;;4940187;28;20035;-83
2022/01/07 01:18:33;;;;;;;12.57;4.32;;;1.30;99.90;;;;;;4940207;28;20064;-82
2022/01/07 01:20:59;;;;;;;10.98;5.30;;;1.30;99.90;;;;;;4939437;28;20036;-82
2022/01/07 01:23:24;;;;;;;12.07;3.70;;;1.30;99.90;;;;;;4941398;28;20107;-82
2022/01/07 01:25:51;;;;;;;13.52;4.20;;;1.30;99.90;;;;;;4940991;28;20047;-82
2022/01/07 01:28:17;;;;;;;8.43;4.30;;;1.30;99.90;;;;;;4939437;28;20614;-82
2022/01/07 01:30:42;;;;;;;13.32;4.15;;;1.20;99.90;;;;;;4940783;28;20051;-82
2022/01/07 01:33:08;;;;;;;7.40;4.03;;;1.30;99.90;;;;;;4940781;28;20403;-82
2022/01/07 01:35:37;;;;;;;15.00;4.40;;;1.30;99.90;;;;;;4941123;28;20456;-82
2022/01/07 01:38:02;;;;;;;9.50;4.32;;;1.30;99.90;;;;;;4939929;28;20135;-83
2022/01/07 01:40:28;;;;;;;10.55;3.72;;;1.40;99.90;;;;;;4941237;28;20103;-82
2022/01/07 01:42:53;;;;;;;14.05;4.45;;;1.40;99.90;;;;;;4939728;28;20061;-82
2022/01/07 01:45:20;;;;;;;12.45;3.35;;;1.40;99.90;;;;;;4940533;28;20050;-82
2022/01/07 01:47:46;;;;;;;9.50;3.20;;;1.50;99.90;;;;;;4939391;28;20082;-82
2022/01/07 01:50:13;;;;;;;11.10;4.47;;;1.50;99.90;;;;;;4943632;28;20031;-82
2022/01/07 01:52:45;;;;;;;18.88;3.97;;;1.50;99.90;;;;;;4945720;29;20055;-82
2022/01/07 01:55:10;;;;;;;8.68;3.85;;;1.60;99.90;;;;;;4946338;28;20097;-82
2022/01/07 01:57:36;;;;;;;10.07;3.67;;;1.70;99.90;;;;;;4946760;28;20059;-82
2022/01/07 02:00:04;;;;;;;16.17;4.50;;;1.80;99.90;;;;;;4944747;29;20039;-82
2022/01/07 02:02:30;;;;;;;10.07;4.35;;;1.80;99.90;;;;;;4946344;28;20090;-82
2022/01/07 02:04:56;;;;;;;12.63;3.63;;;1.90;99.90;;;;;;4947451;28;20016;-82
2022/01/07 02:07:25;;;;;;;15.48;4.93;;;1.90;99.90;;;;;;4946989;29;20063;-82
2022/01/07 02:09:52;;;;;;;8.90;5.15;;;1.90;99.90;;;;;;4948133;28;20320;-82
2022/01/07 02:12:17;;;;;;;8.02;2.80;;;1.90;99.90;;;;;;4947279;28;20194;-82
2022/01/07 02:14:55;;;;;;;12.23;2.72;;;1.90;99.90;;;;;;4945672;28;20560;-82
2022/01/07 02:17:22;;;;;;;21.67;6.47;;;1.90;99.90;;;;;;4945673;28;20027;-82
2022/01/07 02:19:47;;;;;;;11.27;3.97;;;2.00;99.90;;;;;;4947185;28;20095;-82
2022/01/07 02:22:13;;;;;;;11.77;3.90;;;2.00;99.90;;;;;;4946288;29;20027;-82
2022/01/07 02:24:39;;;;;;;23.13;6.15;;;2.00;99.90;;;;;;4946453;28;20127;-82
2022/01/07 02:27:05;;;;;;;;;;;2.10;99.90;;;;;;4946753;29;20043;-81
2022/01/07 02:29:31;;;;;;;11.63;4.57;;;2.10;99.90;;;;;;4946244;28;20290;-82
2022/01/07 02:31:56;;;;;;;19.02;10.02;;;2.00;99.90;;;;;;4947736;28;20474;-82
2022/01/07 02:34:22;;;;;;;29.63;13.27;;;2.10;99.90;;;;;;4947279;28;20035;-82
2022/01/07 02:36:48;;;;;;;20.38;10.13;;;2.00;99.90;;;;;;4946600;28;20487;-82
2022/01/07 02:39:13;;;;;;;17.02;7.43;;;2.00;99.90;;;;;;4948000;28;20035;-82
2022/01/07 02:41:39;;;;;;;19.85;8.23;;;2.00;99.90;;;;;;4945320;29;20027;-82
2022/01/07 02:44:05;;;;;;;20.20;8.80;;;2.00;99.90;;;;;;4947921;28;20074;-84
2022/01/07 02:46:30;;;;;;;16.05;5.50;;;2.00;99.90;;;;;;4945636;28;20359;-83
2022/01/07 02:48:57;;;;;;;14.63;4.20;;;2.00;99.90;;;;;;4946538;28;20490;-83
2022/01/07 02:51:22;;;;;;;13.60;5.22;;;2.00;99.90;;;;;;4945557;28;20015;-83
2022/01/07 02:53:48;;;;;;;11.77;4.20;;;2.00;99.90;;;;;;4946336;28;20400;-83
2022/01/07 02:56:13;;;;;;;13.60;5.32;;;2.00;99.90;;;;;;4948437;28;20035;-83
2022/01/07 02:58:39;;;;;;;11.32;4.15;;;2.00;99.90;;;;;;4945334;28;20065;-83
2022/01/07 03:01:04;;;;;;;11.32;3.72;;;2.10;99.90;;;;;;4945887;28;20110;-83
2022/01/07 03:03:30;;;;;;;8.90;4.28;;;2.10;99.90;;;;;;4941456;28;20488;-83
2022/01/07 03:05:55;;;;;;;14.02;4.55;;;2.10;99.90;;;;;;4944443;28;20060;-82
2022/01/07 03:08:21;;;;;;;7.63;3.05;;;2.10;99.90;;;;;;4942286;28;20620;-82
2022/01/07 03:10:47;;;;;;;10.73;5.05;;;2.20;99.90;;;;;;4943943;28;20031;-81
2022/01/07 03:13:12;;;;;;;9.68;4.80;;;2.30;99.90;;;;;;4942265;28;20028;-82
2022/01/07 03:15:38;;;;;;;6.63;3.25;;;2.30;99.90;;;;;;4943920;28;20257;-81
2022/01/07 03:18:06;;;;;;;12.13;3.35;;;2.40;99.90;;;;;;4943694;28;20381;-82
2022/01/07 03:20:38;;;;;;;10.52;3.70;;;2.40;99.90;;;;;;4941959;28;20365;-82
2022/01/07 03:23:07;;;;;;;12.38;3.58;;;2.40;99.90;;;;;;4945155;28;20051;-82
2022/01/07 03:25:33;;;;;;;11.40;2.90;;;2.40;99.90;;;;;;4943892;28;20027;-82
2022/01/07 03:27:59;;;;;;;11.93;3.60;;;2.50;99.90;;;;;;4944649;28;20035;-82
2022/01/07 03:30:24;;;;;;;11.10;3.90;;;2.50;99.90;;;;;;4942657;28;20686;-82
2022/01/07 03:32:50;;;;;;;9.57;2.70;;;2.50;99.90;;;;;;4943322;28;20031;-82
2022/01/07 03:35:17;;;;;;;7.75;3.17;;;2.50;99.90;;;;;;4943177;28;20140;-82
2022/01/07 03:37:43;;;;;;;16.45;2.90;;;2.50;99.90;;;;;;4943458;28;20082;-82
2022/01/07 03:40:11;;;;;;;5.97;2.90;;;2.60;99.90;;;;;;4943316;29;20041;-82
2022/01/07 03:42:36;;;;;;;7.15;2.30;;;2.60;99.90;;;;;;4943618;28;20659;-82
2022/01/07 03:45:04;;;;;;;9.88;2.97;;;2.60;99.90;;;;;;4942771;28;20108;-82
2022/01/07 03:47:29;;;;;;;7.82;2.88;;;2.70;99.90;;;;;;4943521;28;20035;-82
2022/01/07 03:49:55;;;;;;;9.88;2.60;;;2.70;99.90;;;;;;4944159;28;20031;-82
2022/01/07 03:52:20;;;;;;;10.65;2.70;;;2.70;99.90;;;;;;4942479;28;20047;-82
2022/01/07 03:54:47;;;;;;;13.00;3.20;;;2.70;99.90;;;;;;4944316;28;20039;-82
2022/01/07 03:57:13;;;;;;;12.65;3.55;;;2.70;99.90;;;;;;4942404;28;20688;-83
2022/01/07 03:59:38;;;;;;;9.35;3.45;;;2.70;99.90;;;;;;4943721;28;20043;-84
2022/01/07 04:02:04;;;;;;;15.73;3.65;;;2.70;99.90;;;;;;4942630;28;20039;-84
2022/01/07 04:04:29;;;;;;;13.82;3.45;;;2.70;99.90;;;;;;4943295;28;20058;-83
2022/01/07 04:06:55;;;;;;;7.22;2.97;;;2.60;99.90;;;;;;4942185;28;20122;-83
2022/01/07 04:09:20;;;;;;;8.20;3.03;;;2.70;99.90;;;;;;4943249;28;20514;-83
2022/01/07 04:11:46;;;;;;;11.00;2.78;;;2.60;99.90;;;;;;4941712;29;20511;-83
2022/01/07 04:14:11;;;;;;;5.95;2.50;;;2.60;99.90;;;;;;4967288;23;20045;-69
2022/01/07 04:16:37;;;;;;;17.00;4.05;;;2.70;99.90;;;;;;4959906;28;20427;-70
2022/01/07 04:19:02;;;;;;;8.07;3.05;;;2.70;99.90;;;;;;4959689;28;20023;-69
2022/01/07 04:21:28;;;;;;;8.65;3.10;;;2.70;99.90;;;;;;4961229;28;20058;-69
2022/01/07 04:23:53;;;;;;;8.38;2.55;;;2.80;99.90;;;;;;4969968;28;20084;-70
2022/01/07 04:26:19;;;;;;;15.85;2.95;;;2.80;99.90;;;;;;4977213;28;20516;-70
2022/01/07 04:28:44;;;;;;;12.98;2.90;;;2.80;99.90;;;;;;4978043;28;20399;-69
2022/01/07 04:31:10;;;;;;;6.47;3.15;;;2.90;99.90;;;;;;4976700;28;20022;-70
2022/01/07 04:33:35;;;;;;;8.63;2.47;;;2.90;99.90;;;;;;4978592;28;20027;-70
2022/01/07 04:36:01;;;;;;;6.45;3.40;;;2.80;99.90;;;;;;4978176;28;20019;-70
2022/01/07 04:38:27;;;;;;;9.20;3.10;;;2.90;99.90;;;;;;4977873;28;20030;-70
2022/01/07 04:40:52;;;;;;;10.55;3.45;;;2.90;99.90;;;;;;4978833;28;20057;-69
2022/01/07 04:43:18;;;;;;;12.68;3.00;;;2.90;99.90;;;;;;4977653;28;20471;-70
2022/01/07 04:45:44;;;;;;;13.27;4.35;;;2.90;99.90;;;;;;4975278;28;20030;-70
2022/01/07 04:48:10;;;;;;;9.05;3.08;;;3.00;99.90;;;;;;4977761;28;20097;-69
2022/01/07 04:50:36;;;;;;;7.13;2.88;;;3.00;99.90;;;;;;4977899;28;20487;-70
2022/01/07 04:53:01;;;;;;;15.00;2.15;;;3.00;99.90;;;;;;4977833;28;20033;-69
2022/01/07 04:55:35;;;;;;;24.35;8.57;;;3.00;99.90;;;;;;4977889;28;20472;-69
2022/01/07 04:58:01;;;;;;;4.30;1.85;;;3.00;99.90;;;;;;4978048;28;20030;-70
2022/01/07 05:00:26;;;;;;;10.65;6.35;;;3.10;99.90;;;;;;4975024;28;20026;-70
2022/01/07 05:02:52;;;;;;;11.93;2.78;;;3.10;99.90;;;;;;4977108;28;20031;-69
2022/01/07 05:05:18;;;;;;;7.53;2.67;;;3.10;99.90;;;;;;4975730;28;20027;-69
2022/01/07 05:07:43;;;;;;;;;;;3.10;99.90;;;;;;4978382;28;20026;-69
2022/01/07 05:10:11;;;;;;;9.35;3.67;;;3.20;99.90;;;;;;4973715;28;19960;-70
2022/01/07 05:12:37;;;;;;;8.35;2.50;;;3.20;99.90;;;;;;4978417;28;20050;-70
2022/01/07 05:15:05;;;;;;;8.80;3.00;;;3.20;99.90;;;;;;4974476;28;20598;-70
2022/01/07 05:17:31;;;;;;;9.32;3.45;;;3.20;99.90;;;;;;4978451;28;20027;-69
2022/01/07 05:19:56;;;;;;;6.03;2.33;;;3.20;99.90;;;;;;4974151;28;20458;-69
2022/01/07 05:22:22;;;;;;;7.95;2.67;;;3.30;99.90;;;;;;4978070;28;20118;-70
2022/01/07 05:24:48;;;;;;;11.68;3.03;;;3.30;99.90;;;;;;4975632;28;20439;-69
2022/01/07 05:27:13;;;;;;;6.78;2.55;;;3.30;99.90;;;;;;4977589;28;20030;-70
2022/01/07 05:29:39;;;;;;;5.85;3.05;;;3.30;99.90;;;;;;4975993;28;20034;-70
2022/01/07 05:32:05;;;;;;;12.07;3.70;;;3.30;99.90;;;;;;4974700;28;20026;-70
2022/01/07 05:34:31;;;;;;;;;;;3.30;99.90;;;;;;4978358;28;20022;-69
2022/01/07 05:36:56;;;;;;;10.60;3.15;;;3.30;99.90;;;;;;4977139;28;19932;-70
2022/01/07 05:39:22;;;;;;;13.82;3.75;;;3.30;99.90;;;;;;4978333;28;20041;-69
2022/01/07 05:41:47;;;;;;;10.88;3.67;;;3.30;99.90;;;;;;4975355;28;20053;-69
2022/01/07 05:44:13;;;;;;;5.65;4.22;;;3.30;99.90;;;;;;4977347;28;20031;-70
2022/01/07 05:46:38;;;;;;;4.80;2.67;;;3.30;99.90;;;;;;4976393;28;20045;-69
2022/01/07 05:49:04;;;;;;;13.80;3.42;;;3.30;99.90;;;;;;4977460;28;20062;-69
2022/01/07 05:51:30;;;;;;;9.98;4.18;;;3.30;99.90;;;;;;4974685;28;20109;-70
2022/01/07 05:53:55;;;;;;;11.25;3.90;;;3.30;99.90;;;;;;4973770;28;20023;-70
2022/01/07 05:56:21;;;;;;;9.77;3.65;;;3.30;99.90;;;;;;4976551;28;20038;-70
2022/01/07 05:58:46;;;;;;;5.35;3.13;;;3.30;99.90;;;;;;4975147;28;20031;-70
2022/01/07 06:01:12;;;;;;;8.35;2.80;;;3.40;99.90;;;;;;4976249;28;20038;-70
2022/01/07 06:03:39;;;;;;;5.32;2.80;;;3.40;99.90;;;;;;4977127;28;20115;-69
2022/01/07 06:06:04;;;;;;;10.15;3.45;;;3.40;99.90;;;;;;4977230;28;20031;-70
2022/01/07 06:08:30;;;;;;;10.90;4.35;;;3.40;99.90;;;;;;4977043;28;20050;-69
2022/01/07 06:10:55;;;;;;;;;;;3.40;99.90;;;;;;4976023;28;20039;-69
2022/01/07 06:13:21;;;;;;;10.95;4.10;;;3.40;99.90;;;;;;4975851;28;19910;-69
2022/01/07 06:15:46;;;;;;;17.50;4.10;;;3.50;99.90;;;;;;4974517;28;20019;-70
2022/01/07 06:18:12;;;;;;;8.40;2.78;;;3.50;99.90;;;;;;4976743;28;20041;-69
2022/01/07 06:20:37;;;;;;;9.10;4.05;;;3.50;99.90;;;;;;4974434;28;20431;-69
2022/01/07 06:23:03;;;;;;;14.07;5.07;;;3.50;99.90;;;;;;4975832;28;20058;-69
2022/01/07 06:25:28;;;;;;;8.45;3.28;;;3.50;99.90;;;;;;4977144;28;20029;-69
2022/01/07 06:27:54;;;;;;;20.77;5.93;;;3.50;99.90;;;;;;4975950;28;20061;-69
2022/01/07 06:30:20;;;;;;;12.57;4.05;;;3.50;99.90;;;;;;4975249;28;20022;-68
2022/01/07 06:32:46;;;;;;;12.10;4.22;;;3.50;99.90;;;;;;4976792;28;20054;-69
2022/01/07 06:35:11;;;;;;;11.07;4.07;;;3.50;99.90;;;;;;4976645;28;20022;-68
2022/01/07 06:37:38;;;;;;;7.63;3.35;;;3.50;99.90;;;;;;4978438;28;20037;-69
2022/01/07 06:40:05;;;;;;;12.60;4.53;;;3.50;99.90;;;;;;4980659;28;20061;-68
2022/01/07 06:42:31;;;;;;;10.98;3.72;;;3.50;99.90;;;;;;4981278;28;20026;-68
2022/01/07 06:44:57;;;;;;;11.90;4.35;;;3.50;99.90;;;;;;4979797;28;20439;-69
2022/01/07 06:47:22;;;;;;;;;;;3.50;99.90;;;;;;4982024;28;20553;-68
2022/01/07 06:49:48;;;;;;;9.77;4.65;;;3.50;99.90;;;;;;4979393;28;19914;-69
2022/01/07 06:52:13;;;;;;;6.72;3.75;;;3.50;99.90;;;;;;4981647;28;20438;-69
2022/01/07 06:54:39;;;;;;;9.40;3.45;;;3.50;99.90;;;;;;4980764;28;20040;-68
2022/01/07 06:57:04;;;;;;;10.07;5.07;;;3.50;99.90;;;;;;4976582;28;20027;-68
2022/01/07 06:59:30;;;;;;;10.13;3.67;;;3.50;99.90;;;;;;4974435;28;20478;-68
2022/01/07 07:01:56;;;;;;;9.05;5.47;;;3.50;99.90;;;;;;4980045;28;20388;-68
2022/01/07 07:04:21;;;;;;;13.65;4.15;;;3.50;99.90;;;;;;4979485;28;20121;-68
2022/01/07 07:06:47;;;;;;;8.27;3.78;;;3.50;99.90;;;;;;4978796;28;20067;-72
2022/01/07 07:09:13;;;;;;;9.90;3.78;;;3.50;99.90;;;;;;4976931;28;20062;-72
2022/01/07 07:11:39;;;;;;;13.32;3.97;;;3.50;99.90;;;;;;4972883;28;20478;-73
2022/01/07 07:14:05;;;;;;;10.10;3.70;;;3.50;99.90;;;;;;4980231;28;20064;-72
2022/01/07 07:16:30;;;;;;;11.63;3.83;;;3.50;99.90;;;;;;4978772;28;20042;-75
2022/01/07 07:18:56;;;;;;;6.97;3.13;;;3.50;99.90;;;;;;4978720;28;20027;-75
2022/01/07 07:21:21;;;;;;;9.45;4.10;;;3.50;99.90;;;;;;4979224;28;20446;-70
2022/01/07 07:23:47;;;;;;;9.63;4.10;;;3.40;99.90;;;;;;4979284;28;20030;-71
2022/01/07 07:26:13;;;;;;;13.82;3.80;;;3.50;99.90;;;;;;4977687;28;20030;-70
2022/01/07 07:28:39;;;;;;;10.95;3.55;;;3.40;99.90;;;;;;4978247;28;20061;-70
2022/01/07 07:31:12;;;;;;;12.80;3.45;;;3.40;99.90;;;;;;4978558;28;20523;-70
2022/01/07 07:36:27;;;;;;;9.57;4.75;;;3.40;99.90;;;;;;4979278;28;20150;-68
2022/01/07 07:39:09;;;;;;;12.07;4.43;;;3.40;99.90;;;;;;4979048;28;20042;-69
2022/01/07 07:41:37;;;;;;;24.50;9.80;;;3.40;99.90;;;;;;4979369;28;20058;-69
2022/01/07 07:44:04;;;;;;;17.27;8.38;;;3.40;99.90;;;;;;4977994;28;20050;-69
2022/01/07 07:46:31;;;;;;;15.48;5.18;;;3.40;99.90;;;;;;4978908;28;20554;-68
2022/01/07 07:49:00;;;;;;;12.77;4.68;;;3.40;99.90;;;;;;4977332;28;20483;-69
2022/01/07 07:51:25;;;;;;;7.80;4.65;;;3.40;99.90;;;;;;4978790;28;20030;-69
2022/01/07 07:53:51;;;;;;;13.20;4.57;;;3.40;99.90;;;;;;4980024;28;20030;-68
2022/01/07 07:56:16;;;;;;;9.50;4.55;;;3.40;99.90;;;;;;4975835;28;20049;-69
2022/01/07 07:58:43;;;;;;;12.57;4.32;;;3.40;99.90;;;;;;4978879;28;20446;-69
2022/01/07 08:01:10;;;;;;;10.60;4.97;;;3.30;99.90;;;;;;4978240;28;20118;-69
2022/01/07 08:03:35;;;;;;;12.52;4.60;;;3.30;99.90;;;;;;4978281;28;20030;-69
2022/01/07 08:06:01;;;;;;;12.48;4.50;;;3.30;99.90;;;;;;4977702;28;20050;-70
2022/01/07 08:08:27;;;;;;;23.20;6.20;;;3.20;99.90;;;;;;4980123;28;20491;-70
2022/01/07 08:10:56;;;;;;;10.15;5.07;;;3.20;99.90;;;;;;4977773;28;20058;-70
2022/01/07 08:13:28;;;;;;;9.77;3.35;;;3.20;99.90;;;;;;4977277;28;20034;-71
2022/01/07 08:15:58;;;;;;;10.95;4.70;;;3.20;99.90;;;;;;4978400;28;20034;-70
2022/01/07 08:18:25;;;;;;;12.73;3.97;;;3.10;99.90;;;;;;4979594;28;20030;-70
2022/01/07 08:20:51;;;;;;;9.50;3.58;;;3.10;99.90;;;;;;4978755;28;20069;-70
2022/01/07 08:23:18;;;;;;;8.73;3.15;;;3.10;99.90;;;;;;4978311;28;20073;-70
2022/01/07 08:25:44;;;;;;;11.02;4.28;;;3.10;99.90;;;;;;4977795;28;20027;-70
2022/01/07 08:28:12;;;;;;;6.03;3.70;;;3.10;99.90;;;;;;4977786;28;20034;-70
2022/01/07 08:30:58;;;;;;;7.72;3.40;;;3.10;99.90;;;;;;4976887;28;20023;-70
2022/01/07 08:36:07;;;;;;;5.88;3.08;;;3.10;99.90;;;;;;4978240;28;20100;-70
2022/01/07 08:38:33;;;;;;;7.72;3.42;;;3.10;99.90;;;;;;4978232;28;20535;-70
2022/01/07 08:40:59;;;;;;;14.80;4.10;;;3.10;99.90;;;;;;4977333;28;20652;-71
2022/01/07 08:43:24;;;;;;;;;;;3.10;99.90;;;;;;4977071;28;20360;-69
2022/01/07 08:45:49;;;;;;;14.18;4.30;;;3.10;99.90;;;;;;4975399;28;19925;-69
2022/01/07 08:48:15;;;;;;;6.22;2.90;;;3.10;99.90;;;;;;4977104;28;20415;-71
2022/01/07 08:50:41;;;;;;;9.88;3.97;;;3.10;99.90;;;;;;4978386;28;20045;-68
2022/01/07 08:53:06;;;;;;;16.73;5.68;;;3.10;99.90;;;;;;4977450;28;20026;-70
2022/01/07 08:55:33;;;;;;;5.15;2.38;;;3.20;99.90;;;;;;4977912;28;20038;-71
2022/01/07 08:57:58;;;;;;;11.88;3.30;;;3.20;99.90;;;;;;4976123;28;20439;-73
2022/01/07 09:00:24;;;;;;;12.82;2.72;;;3.20;99.90;;;;;;4976504;28;20026;-73
2022/01/07 09:02:50;;;;;;;5.80;2.63;;;3.20;99.90;;;;;;4977171;28;20097;-73
2022/01/07 09:05:15;;;;;;;12.63;2.80;;;3.20;99.90;;;;;;4976269;28;20440;-75
2022/01/07 09:07:41;;;;;;;6.68;2.05;;;3.20;99.90;;;;;;4978703;28;20121;-73
2022/01/07 09:10:06;;;;;;;8.93;3.42;;;3.30;99.90;;;;;;4976664;28;20061;-72
2022/01/07 09:12:32;;;;;;;11.90;3.05;;;3.30;99.90;;;;;;4977138;28;20085;-72
2022/01/07 09:14:57;;;;;;;6.05;4.20;;;3.30;99.90;;;;;;4975606;28;20062;-72
2022/01/07 09:17:23;;;;;;;6.55;3.03;;;3.30;99.90;;;;;;4977015;28;20019;-69
2022/01/07 09:19:49;;;;;;;7.18;2.80;;;3.30;99.90;;;;;;4976619;28;20062;-69
2022/01/07 09:22:15;;;;;;;;;;;3.30;99.90;;;;;;4977478;28;20086;-70
2022/01/07 09:24:40;;;;;;;5.03;3.20;;;3.40;99.90;;;;;;4977883;28;19906;-69
2022/01/07 09:27:06;;;;;;;7.15;4.10;;;3.40;99.90;;;;;;4976171;28;20042;-68
2022/01/07 09:29:31;;;;;;;10.48;3.40;;;3.40;99.90;;;;;;4975168;28;20049;-69
2022/01/07 09:31:57;;;;;;;8.75;4.15;;;3.40;99.90;;;;;;4975850;28;20510;-68
2022/01/07 09:34:22;;;;;;;9.23;5.30;;;3.50;99.90;;;;;;4978072;28;20102;-69
2022/01/07 09:36:48;;;;;;;13.55;4.57;;;3.50;99.90;;;;;;4976276;28;20036;-68
2022/01/07 09:39:13;;;;;;;9.75;4.05;;;3.50;99.90;;;;;;4976490;28;20050;-69
2022/01/07 09:41:39;;;;;;;7.18;4.13;;;3.50;99.90;;;;;;4975339;28;20030;-69
2022/01/07 09:44:09;;;;;;;;;;;3.50;99.90;;;;;;4977660;28;20039;-69
2022/01/07 09:46:35;;;;;;;10.15;3.60;;;3.60;99.90;;;;;;4975523;28;19925;-69
2022/01/07 09:49:00;;;;;;;20.38;5.32;;;3.60;99.90;;;;;;4976928;28;20046;-71
2022/01/07 09:51:27;;;;;;;7.18;3.10;;;3.60;99.90;;;;;;4975798;28;20113;-72
2022/01/07 09:53:52;;;;;;;7.18;3.15;;;3.60;99.90;;;;;;4976870;28;20031;-72
2022/01/07 09:56:19;;;;;;;12.30;3.50;;;3.60;99.90;;;;;;4975683;28;20034;-70
2022/01/07 09:58:45;;;;;;;42.78;7.93;;;3.60;99.90;;;;;;4976801;28;20035;-70
2022/01/07 10:01:14;;;;;;;;;;;3.60;99.90;;;;;;4975592;28;20413;-67
2022/01/07 10:03:41;;;;;;;18.38;3.53;;;3.70;99.90;;;;;;4977303;28;19941;-69
2022/01/07 10:06:21;;;;;;;15.70;5.40;;;3.70;99.90;;;;;;4976318;28;20403;-69
2022/01/07 10:09:23;;;;;;;8.75;2.72;;;3.70;99.90;;;;;;4977169;28;20034;-69
2022/01/07 10:12:02;;;;;;;9.98;2.58;;;3.80;99.90;;;;;;4945897;28;20511;-72
2022/01/07 10:14:29;;;;;;;45.88;6.78;;;3.80;99.90;;;;;;4973225;23;20563;-81
2022/01/07 10:16:58;;;;;;;10.55;3.40;;;3.80;99.90;;;;;;4946455;28;20031;-79
2022/01/07 10:19:31;;;;;;;8.35;3.65;;;3.80;99.90;;;;;;4944655;28;20035;-80
2022/01/07 10:21:58;;;;;;;5.22;2.78;;;3.90;99.90;;;;;;4948838;28;20391;-77
2022/01/07 10:24:24;;;;;;;19.08;5.20;;;3.90;99.90;;;;;;4944984;29;20145;-78
2022/01/07 10:27:12;;;;;;;10.63;5.10;;;3.90;99.90;;;;;;4944715;29;20504;-76
2022/01/07 10:29:40;;;;;;;9.77;3.25;;;3.90;99.90;;;;;;4945066;28;20067;-75
2022/01/07 10:32:23;;;;;;;12.25;3.30;;;3.90;99.90;;;;;;4947608;28;20388;-74
2022/01/07 10:35:13;;;;;;;7.57;2.72;;;3.90;99.90;;;;;;4945131;28;20041;-84
2022/01/07 10:37:52;;;;;;;11.40;5.05;;;3.90;99.90;;;;;;4944371;29;20055;-83
2022/01/07 10:40:25;;;;;;;6.95;3.70;;;3.90;99.90;;;;;;4944283;29;20038;-77
2022/01/07 10:42:54;;;;;;;8.02;2.97;;;3.90;99.90;;;;;;4943898;29;20035;-78
2022/01/07 10:45:21;;;;;;;5.43;2.83;;;4.00;99.90;;;;;;4943233;28;20058;-78
2022/01/07 10:47:50;;;;;;;;;;;4.00;99.90;;;;;;4944326;29;20024;-77
2022/01/07 10:50:23;;;;;;;8.30;3.72;;;4.00;99.90;;;;;;4943743;29;19966;-77
2022/01/07 10:52:50;;;;;;;6.63;2.78;;;4.10;99.90;;;;;;4943408;29;20444;-75
2022/01/07 10:55:19;;;;;;;;;;;4.10;99.90;;;;;;4944025;28;20024;-75
2022/01/07 10:57:49;;;;;;;9.25;3.83;;;4.10;99.90;;;;;;4944746;28;19948;-75
2022/01/07 11:00:17;;;;;;;6.53;3.33;;;4.20;99.90;;;;;;4943148;29;20416;-79
2022/01/07 11:02:43;;;;;;;7.63;3.03;;;4.30;99.90;;;;;;4942817;28;20349;-77
2022/01/07 11:05:09;;;;;;;8.45;3.13;;;4.30;99.90;;;;;;4942828;28;20070;-76
2022/01/07 11:07:35;;;;;;;;;;;4.30;99.90;;;;;;4943266;29;20405;-76
2022/01/07 11:10:02;;;;;;;9.57;4.93;;;4.30;99.90;;;;;;4944133;28;19914;-73
2022/01/07 11:12:30;;;;;;;5.28;3.03;;;4.40;99.90;;;;;;4942535;29;20031;-78
2022/01/07 11:14:56;;;;;;;4.93;2.88;;;4.40;99.90;;;;;;4943338;28;20046;-74
2022/01/07 11:17:22;;;;;;;5.82;3.15;;;4.30;99.90;;;;;;4940497;29;20626;-77
2022/01/07 11:19:56;;;;;;;9.63;3.75;;;4.30;99.90;;;;;;4941256;28;20031;-77
2022/01/07 11:22:23;;;;;;;6.80;3.17;;;4.40;99.90;;;;;;4940900;28;20088;-79
2022/01/07 11:25:13;;;;;;;10.70;5.15;;;4.40;99.90;;;;;;4944009;28;20599;-79
2022/01/07 11:27:48;;;;;;;5.43;3.00;;;4.40;99.90;;;;;;4943510;29;20035;-79
2022/01/07 11:30:19;;;;;;;10.43;4.63;;;4.40;99.90;;;;;;4942016;29;20085;-80
2022/01/07 11:32:47;;;;;;;8.88;4.32;;;4.40;99.90;;;;;;4942239;28;20107;-80
2022/01/07 11:35:19;;;;;;;8.23;3.45;;;4.40;99.90;;;;;;4942694;29;20499;-79
2022/01/07 11:37:47;;;;;;;5.05;2.85;;;4.40;99.90;;;;;;4942402;28;20530;-83
2022/01/07 11:40:28;;;;;;;5.00;3.03;;;4.40;99.90;;;;;;4942539;29;20035;-81
2022/01/07 11:42:56;;;;;;;4.20;3.03;;;4.40;99.90;;;;;;4943574;29;20060;-81
2022/01/07 11:45:29;;;;;;;9.35;3.38;;;4.40;99.90;;;;;;4941527;28;20037;-80
2022/01/07 11:48:14;;;;;;;6.43;3.63;;;4.40;99.90;;;;;;4942939;28;20052;-79
2022/01/07 11:51:03;;;;;;;5.68;3.17;;;4.40;99.90;;;;;;4942970;28;20039;-78
2022/01/07 11:53:41;;;;;;;7.15;2.67;;;4.50;99.90;;;;;;4942387;29;20027;-78
2022/01/07 11:56:08;;;;;;;6.70;3.90;;;4.50;99.90;;;;;;4942380;29;20031;-76
2022/01/07 11:58:41;;;;;;;7.00;2.95;;;4.40;99.90;;;;;;4942695;28;20027;-76
2022/01/07 12:01:22;;;;;;;5.97;3.40;;;4.40;99.90;;;;;;4941467;29;20035;-75
2022/01/07 12:03:51;;;;;;;5.43;4.10;;;4.40;99.90;;;;;;4939899;29;20038;-81
2022/01/07 12:06:29;;;;;;;5.43;3.05;;;4.40;99.90;;;;;;4940267;29;20443;-80
2022/01/07 12:09:02;;;;;;;5.90;2.05;;;4.40;99.90;;;;;;4942464;29;20062;-78
2022/01/07 12:11:33;;;;;;;6.13;3.38;;;4.40;99.90;;;;;;4942407;28;20034;-77
2022/01/07 12:13:59;;;;;;;6.78;3.38;;;4.50;99.90;;;;;;4942190;28;20039;-74
2022/01/07 12:16:27;;;;;;;;;;;4.50;99.90;;;;;;4942015;28;20483;-82
2022/01/07 12:19:17;;;;;;;7.15;2.42;;;4.60;99.90;;;;;;4942543;29;19914;-80
2022/01/07 12:21:44;;;;;;;10.45;3.40;;;4.60;99.90;;;;;;4943144;28;20149;-81
2022/01/07 12:24:11;;;;;;;4.03;2.47;;;4.60;99.90;;;;;;4942261;29;20062;-74
2022/01/07 12:26:38;;;;;;;5.13;3.15;;;4.70;99.90;;;;;;4942632;29;20041;-74
2022/01/07 12:29:03;;;;;;;;;;;4.70;99.90;;;;;;4944349;29;20027;-82
2022/01/07 12:31:29;;;;;;;7.32;2.50;;;4.70;99.90;;;;;;4940692;29;19914;-77
2022/01/07 12:33:57;;;;;;;11.52;4.03;;;4.70;99.90;;;;;;4942128;28;20031;-75
2022/01/07 12:36:32;;;;;;;3.42;2.53;;;4.70;99.90;;;;;;4941045;29;20365;-76
2022/01/07 12:39:09;;;;;;;5.25;2.75;;;4.70;99.90;;;;;;4943261;29;20061;-76
2022/01/07 12:41:38;;;;;;;;;;;4.70;99.90;;;;;;4941800;29;20024;-77
2022/01/07 12:44:14;;;;;;;5.50;2.72;;;4.70;99.90;;;;;;4942475;28;20276;-80
2022/01/07 12:46:41;;;;;;;7.57;3.10;;;4.80;99.90;;;;;;4941074;29;20412;-78
2022/01/07 12:49:08;;;;;;;7.20;3.50;;;4.70;99.90;;;;;;4942284;28;20067;-76
2022/01/07 12:51:35;;;;;;;8.20;3.42;;;4.80;99.90;;;;;;4941639;29;20083;-75
2022/01/07 12:54:04;;;;;;;6.55;3.70;;;4.80;99.90;;;;;;4942809;29;20480;-77
2022/01/07 12:56:32;;;;;;;3.70;3.08;;;4.80;99.90;;;;;;4939794;28;20113;-75
2022/01/07 12:59:13;;;;;;;3.28;2.67;;;4.90;99.90;;;;;;4942119;29;20573;-75
2022/01/07 13:01:39;;;;;;;14.00;3.50;;;4.90;99.90;;;;;;4940226;29;20032;-77